Austin, TX (78746)

08:56 CDT le 30 août 2015 (GMT -0500)
Camelot | | Change Station
CLOSE
Current Station
Stations météorologiques personnelles
Location: Austin, TX
Altitude: 925 ft
Stations météo à proximité

Alt. 925 ft 30.29 °N, 97.83 °W | Updated 1 second ago

Nuageux
Nuageux
76.9 ° F
Paraît 79 ° F
N
0.0
Vent Variable Vent de Ouest
Gusts 1.0 mph

Aujourd'hui
Haut(e) -- | Bas -- ° F
--% Risque de précip.
Hier
Haut(e) -- | Bas -- ° F
Precip. -- pouce
7:06 AM 7:56 PM
Pleine lune, 99% visible
Pression 30.02 pouce
Visibilité 10.0 Miles terrestres
Nuages Ciel dégagé
indice de chaleur 79 ° F
Point de rosée 68 ° F
Humidité 75%
Précipitations 0.00 pouce
Profondeur de la couche neigeuse Non disponible.
UV 2 sur 12
Pollen 6.30 sur 12
Qualité de l'air Non disponible.
Flu Activity Non disponible.
METAR KATT 301351Z AUTO 23003KT 10SM CLR 26/19 A3006 RMK AO2 SLP164 T02560194
Pression 30.02 pouce
Visibilité 10.0 Miles terrestres
Nuages Ciel dégagé
indice de chaleur 79 ° F
Point de rosée 68 ° F
Humidité 75%
Précipitations 0.00 pouce
Profondeur de la couche neigeuse Non disponible.
UV 2 sur 12
Pollen 6.30 sur 12
Qualité de l'air Non disponible.
Flu Activity Non disponible.
METAR KATT 301351Z AUTO 23003KT 10SM CLR 26/19 A3006 RMK AO2 SLP164 T02560194

10-Day Weather Forecast

×

Almanac

Astronomie

Aug. 30, 2015 Lever Coucher
Temps réel
Crépuscule civil
Crépuscule nautique
Crépuscule astronomique
Lune
Durée de lumière visible
Longueur du jour
Tomorrow will be .
, % of the Moon is Illuminated

Extrêmes aujourd'hui

State Highs State Lows

Community

WunderPhotos

Upload Photos

1,850,954 Photos téléchargées !

WunderBlogs® & News

Nearby

Qualité de l'air

  Qualité de l'air Indice de la qualité de l'air Polluant
Not available.

Épaisseur de neige

Station Depth Altitude

Activité sismique

Ville Distance Mag. Time & Date
Minimum magnitude displayed is 2.5.

Températures des eaux côtières

Lieu Température

Stations

Stations météo à proximité

Emplacement de la station Température Refroidissement éolien Point de rosée Humidité Vent Precip. Alt. Mise à jour Type